sensor_id;sensor_type;location;lat;lon;timestamp;pressure;altitude;pressure_sealevel;temperature;humidity
8140;BME280;4111;50.972;7.072;2023-02-23T00:01:40;100748.69;;;10.79;100.00
8140;BME280;4111;50.972;7.072;2023-02-23T00:04:07;100746.13;;;10.89;100.00
8140;BME280;4111;50.972;7.072;2023-02-23T00:06:35;100751.69;;;11.00;100.00
8140;BME280;4111;50.972;7.072;2023-02-23T00:09:03;100745.78;;;11.03;100.00
8140;BME280;4111;50.972;7.072;2023-02-23T00:11:53;100748.41;;;10.98;100.00
8140;BME280;4111;50.972;7.072;2023-02-23T00:14:23;100752.88;;;11.04;100.00
8140;BME280;4111;50.972;7.072;2023-02-23T00:16:56;100741.50;;;11.07;100.00
8140;BME280;4111;50.972;7.072;2023-02-23T00:19:23;100754.31;;;11.11;100.00
8140;BME280;4111;50.972;7.072;2023-02-23T00:21:50;100749.22;;;11.15;100.00
8140;BME280;4111;50.972;7.072;2023-02-23T00:24:17;100748.06;;;11.11;100.00
8140;BME280;4111;50.972;7.072;2023-02-23T00:26:47;100751.53;;;11.06;100.00
8140;BME280;4111;50.972;7.072;2023-02-23T00:29:19;100749.41;;;11.08;100.00
8140;BME280;4111;50.972;7.072;2023-02-23T00:31:47;100738.53;;;11.08;100.00
8140;BME280;4111;50.972;7.072;2023-02-23T00:34:16;100746.78;;;10.97;100.00
8140;BME280;4111;50.972;7.072;2023-02-23T00:36:49;100742.97;;;10.98;100.00
8140;BME280;4111;50.972;7.072;2023-02-23T00:39:16;100740.34;;;11.03;100.00
8140;BME280;4111;50.972;7.072;2023-02-23T00:41:52;100731.47;;;10.90;100.00
8140;BME280;4111;50.972;7.072;2023-02-23T00:44:21;100740.53;;;10.96;100.00
8140;BME280;4111;50.972;7.072;2023-02-23T00:46:49;100733.06;;;10.86;100.00
8140;BME280;4111;50.972;7.072;2023-02-23T00:49:18;100735.59;;;10.93;100.00
8140;BME280;4111;50.972;7.072;2023-02-23T00:51:45;100739.22;;;10.99;100.00
8140;BME280;4111;50.972;7.072;2023-02-23T00:54:13;100735.16;;;11.01;100.00
8140;BME280;4111;50.972;7.072;2023-02-23T00:56:40;100734.59;;;10.99;100.00
8140;BME280;4111;50.972;7.072;2023-02-23T00:59:07;100742.97;;;10.98;100.00
8140;BME280;4111;50.972;7.072;2023-02-23T01:01:33;100731.63;;;11.01;100.00
8140;BME280;4111;50.972;7.072;2023-02-23T01:04:03;100728.91;;;11.01;100.00
8140;BME280;4111;50.972;7.072;2023-02-23T01:06:29;100729.81;;;11.06;100.00
8140;BME280;4111;50.972;7.072;2023-02-23T01:08:56;100732.78;;;11.05;100.00
8140;BME280;4111;50.972;7.072;2023-02-23T01:11:25;100726.53;;;11.04;100.00
8140;BME280;4111;50.972;7.072;2023-02-23T01:13:57;100732.69;;;11.00;100.00
8140;BME280;4111;50.972;7.072;2023-02-23T01:16:28;100729.34;;;10.93;100.00
8140;BME280;4111;50.972;7.072;2023-02-23T01:18:57;100735.41;;;11.00;100.00
8140;BME280;4111;50.972;7.072;2023-02-23T01:21:28;100724.97;;;10.91;100.00
8140;BME280;4111;50.972;7.072;2023-02-23T01:23:55;100730.97;;;10.94;100.00
8140;BME280;4111;50.972;7.072;2023-02-23T01:26:27;100728.44;;;10.87;100.00
8140;BME280;4111;50.972;7.072;2023-02-23T01:28:57;100728.19;;;10.88;100.00
8140;BME280;4111;50.972;7.072;2023-02-23T01:31:24;100729.91;;;10.95;100.00
8140;BME280;4111;50.972;7.072;2023-02-23T01:33:55;100724.88;;;11.03;100.00
8140;BME280;4111;50.972;7.072;2023-02-23T01:36:22;100735.56;;;11.10;100.00
8140;BME280;4111;50.972;7.072;2023-02-23T01:38:51;100729.06;;;11.11;100.00
8140;BME280;4111;50.972;7.072;2023-02-23T01:41:23;100728.91;;;11.01;100.00
8140;BME280;4111;50.972;7.072;2023-02-23T01:44:01;100721.34;;;11.03;100.00
8140;BME280;4111;50.972;7.072;2023-02-23T01:46:33;100719.94;;;11.00;100.00
8140;BME280;4111;50.972;7.072;2023-02-23T01:49:01;100719.63;;;10.97;100.00
8140;BME280;4111;50.972;7.072;2023-02-23T01:51:31;100716.00;;;10.91;100.00
8140;BME280;4111;50.972;7.072;2023-02-23T01:54:06;100718.22;;;10.94;100.00
8140;BME280;4111;50.972;7.072;2023-02-23T01:56:35;100723.38;;;10.96;100.00
8140;BME280;4111;50.972;7.072;2023-02-23T01:59:06;100721.75;;;10.95;100.00
8140;BME280;4111;50.972;7.072;2023-02-23T02:01:33;100720.69;;;10.96;100.00
8140;BME280;4111;50.972;7.072;2023-02-23T02:04:03;100716.66;;;10.98;100.00
8140;BME280;4111;50.972;7.072;2023-02-23T02:06:34;100717.47;;;10.99;100.00
8140;BME280;4111;50.972;7.072;2023-02-23T02:09:06;100713.09;;;10.98;100.00
8140;BME280;4111;50.972;7.072;2023-02-23T02:11:34;100713.38;;;10.96;100.00
8140;BME280;4111;50.972;7.072;2023-02-23T02:14:08;100715.00;;;10.97;100.00
8140;BME280;4111;50.972;7.072;2023-02-23T02:22:26;100716.31;;;10.95;100.00
8140;BME280;4111;50.972;7.072;2023-02-23T02:31:17;100711.81;;;10.83;100.00
8140;BME280;4111;50.972;7.072;2023-02-23T02:36:56;100709.75;;;10.90;100.00
8140;BME280;4111;50.972;7.072;2023-02-23T02:39:55;100714.19;;;10.97;100.00
8140;BME280;4111;50.972;7.072;2023-02-23T02:43:14;100710.25;;;10.87;100.00
8140;BME280;4111;50.972;7.072;2023-02-23T02:46:07;100714.78;;;10.82;100.00
8140;BME280;4111;50.972;7.072;2023-02-23T02:48:47;100711.22;;;10.81;100.00
8140;BME280;4111;50.972;7.072;2023-02-23T02:51:26;100705.94;;;10.91;100.00
8140;BME280;4111;50.972;7.072;2023-02-23T02:54:08;100708.50;;;10.98;100.00
8140;BME280;4111;50.972;7.072;2023-02-23T02:56:42;100703.50;;;10.90;100.00
8140;BME280;4111;50.972;7.072;2023-02-23T02:59:12;100707.03;;;10.90;100.00
8140;BME280;4111;50.972;7.072;2023-02-23T03:01:58;100701.59;;;10.90;100.00
8140;BME280;4111;50.972;7.072;2023-02-23T03:04:43;100711.66;;;10.90;100.00
8140;BME280;4111;50.972;7.072;2023-02-23T03:07:35;100708.59;;;10.86;100.00
8140;BME280;4111;50.972;7.072;2023-02-23T03:10:40;100697.09;;;10.79;100.00
8140;BME280;4111;50.972;7.072;2023-02-23T03:13:56;100697.09;;;10.62;100.00
8140;BME280;4111;50.972;7.072;2023-02-23T03:16:55;100698.84;;;10.51;100.00
8140;BME280;4111;50.972;7.072;2023-02-23T03:19:56;100699.91;;;10.50;100.00
8140;BME280;4111;50.972;7.072;2023-02-23T03:23:08;100694.31;;;10.57;100.00
8140;BME280;4111;50.972;7.072;2023-02-23T03:26:10;100696.88;;;10.47;100.00
8140;BME280;4111;50.972;7.072;2023-02-23T03:29:08;100699.41;;;10.54;100.00
8140;BME280;4111;50.972;7.072;2023-02-23T03:37:51;100698.75;;;10.63;100.00
8140;BME280;4111;50.972;7.072;2023-02-23T03:40:42;100699.00;;;10.62;100.00
8140;BME280;4111;50.972;7.072;2023-02-23T03:43:34;100695.78;;;10.65;100.00
8140;BME280;4111;50.972;7.072;2023-02-23T03:46:22;100694.13;;;10.64;100.00
8140;BME280;4111;50.972;7.072;2023-02-23T03:49:10;100701.69;;;10.62;100.00
8140;BME280;4111;50.972;7.072;2023-02-23T03:52:04;100707.13;;;10.62;100.00
8140;BME280;4111;50.972;7.072;2023-02-23T03:54:58;100708.22;;;10.61;100.00
8140;BME280;4111;50.972;7.072;2023-02-23T03:57:47;100708.69;;;10.58;100.00
8140;BME280;4111;50.972;7.072;2023-02-23T04:00:38;100706.66;;;10.65;100.00
8140;BME280;4111;50.972;7.072;2023-02-23T04:03:26;100710.94;;;10.61;100.00
8140;BME280;4111;50.972;7.072;2023-02-23T04:06:13;100711.25;;;10.47;100.00
8140;BME280;4111;50.972;7.072;2023-02-23T04:09:04;100717.75;;;10.46;100.00
8140;BME280;4111;50.972;7.072;2023-02-23T04:12:02;100716.22;;;10.50;100.00
8140;BME280;4111;50.972;7.072;2023-02-23T04:14:55;100714.53;;;10.49;100.00
8140;BME280;4111;50.972;7.072;2023-02-23T04:17:25;100716.78;;;10.52;100.00
8140;BME280;4111;50.972;7.072;2023-02-23T04:19:55;100718.91;;;10.50;100.00
8140;BME280;4111;50.972;7.072;2023-02-23T04:22:22;100719.50;;;10.52;100.00
8140;BME280;4111;50.972;7.072;2023-02-23T04:24:49;100722.34;;;10.46;100.00
8140;BME280;4111;50.972;7.072;2023-02-23T04:27:16;100715.88;;;10.47;100.00
8140;BME280;4111;50.972;7.072;2023-02-23T04:29:43;100720.22;;;10.48;100.00
8140;BME280;4111;50.972;7.072;2023-02-23T04:32:13;100721.69;;;10.56;100.00
8140;BME280;4111;50.972;7.072;2023-02-23T04:34:41;100728.84;;;10.62;100.00
8140;BME280;4111;50.972;7.072;2023-02-23T04:37:07;100723.94;;;10.59;100.00
8140;BME280;4111;50.972;7.072;2023-02-23T04:39:34;100731.00;;;10.60;100.00
8140;BME280;4111;50.972;7.072;2023-02-23T04:42:01;100730.09;;;10.54;100.00
8140;BME280;4111;50.972;7.072;2023-02-23T04:44:27;100725.41;;;10.49;100.00
8140;BME280;4111;50.972;7.072;2023-02-23T04:46:55;100736.34;;;10.55;100.00
8140;BME280;4111;50.972;7.072;2023-02-23T04:49:22;100727.63;;;10.52;100.00
8140;BME280;4111;50.972;7.072;2023-02-23T04:51:48;100730.34;;;10.52;100.00
8140;BME280;4111;50.972;7.072;2023-02-23T04:54:15;100728.69;;;10.51;100.00
8140;BME280;4111;50.972;7.072;2023-02-23T04:56:42;100731.88;;;10.48;100.00
8140;BME280;4111;50.972;7.072;2023-02-23T04:59:08;100728.59;;;10.46;100.00
8140;BME280;4111;50.972;7.072;2023-02-23T05:01:34;100728.03;;;10.44;100.00
8140;BME280;4111;50.972;7.072;2023-02-23T05:04:02;100736.75;;;10.46;100.00
8140;BME280;4111;50.972;7.072;2023-02-23T05:06:29;100735.09;;;10.45;100.00
8140;BME280;4111;50.972;7.072;2023-02-23T05:08:56;100740.53;;;10.45;100.00
8140;BME280;4111;50.972;7.072;2023-02-23T05:11:22;100731.00;;;10.43;100.00
8140;BME280;4111;50.972;7.072;2023-02-23T05:13:50;100737.50;;;10.42;100.00
8140;BME280;4111;50.972;7.072;2023-02-23T05:16:17;100737.81;;;10.45;100.00
8140;BME280;4111;50.972;7.072;2023-02-23T05:18:43;100744.31;;;10.44;100.00
8140;BME280;4111;50.972;7.072;2023-02-23T05:21:10;100739.97;;;10.43;100.00
8140;BME280;4111;50.972;7.072;2023-02-23T05:23:37;100746.94;;;10.39;100.00
8140;BME280;4111;50.972;7.072;2023-02-23T05:26:09;100745.88;;;10.40;100.00
8140;BME280;4111;50.972;7.072;2023-02-23T05:28:37;100749.09;;;10.37;100.00
8140;BME280;4111;50.972;7.072;2023-02-23T05:31:05;100746.13;;;10.39;100.00
8140;BME280;4111;50.972;7.072;2023-02-23T05:33:32;100744.59;;;10.43;100.00
8140;BME280;4111;50.972;7.072;2023-02-23T05:36:03;100746.44;;;10.42;100.00
8140;BME280;4111;50.972;7.072;2023-02-23T05:38:30;100752.16;;;10.41;100.00
8140;BME280;4111;50.972;7.072;2023-02-23T05:40:56;100750.72;;;10.38;100.00
8140;BME280;4111;50.972;7.072;2023-02-23T05:43:23;100754.00;;;10.40;100.00
8140;BME280;4111;50.972;7.072;2023-02-23T05:45:49;100755.00;;;10.34;100.00
8140;BME280;4111;50.972;7.072;2023-02-23T05:48:15;100762.09;;;10.35;100.00
8140;BME280;4111;50.972;7.072;2023-02-23T05:50:42;100756.66;;;10.35;100.00
8140;BME280;4111;50.972;7.072;2023-02-23T05:53:08;100751.22;;;10.35;100.00
8140;BME280;4111;50.972;7.072;2023-02-23T05:55:35;100762.47;;;10.27;100.00
8140;BME280;4111;50.972;7.072;2023-02-23T05:58:02;100756.19;;;10.26;100.00
8140;BME280;4111;50.972;7.072;2023-02-23T06:00:29;100762.94;;;10.24;100.00
8140;BME280;4111;50.972;7.072;2023-02-23T06:02:55;100763.16;;;10.22;100.00
8140;BME280;4111;50.972;7.072;2023-02-23T06:05:22;100765.16;;;10.27;100.00
8140;BME280;4111;50.972;7.072;2023-02-23T06:07:48;100766.22;;;10.26;100.00
8140;BME280;4111;50.972;7.072;2023-02-23T06:10:15;100762.69;;;10.25;100.00
8140;BME280;4111;50.972;7.072;2023-02-23T06:12:41;100770.59;;;10.27;100.00
8140;BME280;4111;50.972;7.072;2023-02-23T06:15:08;100768.47;;;10.29;100.00
8140;BME280;4111;50.972;7.072;2023-02-23T06:17:35;100771.78;;;10.31;100.00
8140;BME280;4111;50.972;7.072;2023-02-23T06:20:03;100779.09;;;10.30;100.00
8140;BME280;4111;50.972;7.072;2023-02-23T06:22:30;100776.72;;;10.34;100.00
8140;BME280;4111;50.972;7.072;2023-02-23T06:24:56;100777.22;;;10.31;100.00
8140;BME280;4111;50.972;7.072;2023-02-23T06:27:22;100778.47;;;10.28;100.00
8140;BME280;4111;50.972;7.072;2023-02-23T06:29:49;100786.16;;;10.31;100.00
8140;BME280;4111;50.972;7.072;2023-02-23T06:32:15;100782.63;;;10.31;100.00
8140;BME280;4111;50.972;7.072;2023-02-23T06:34:42;100777.22;;;10.31;100.00
8140;BME280;4111;50.972;7.072;2023-02-23T06:37:09;100784.84;;;10.34;100.00
8140;BME280;4111;50.972;7.072;2023-02-23T06:39:37;100784.63;;;10.36;100.00
8140;BME280;4111;50.972;7.072;2023-02-23T06:42:03;100790.84;;;10.36;100.00
8140;BME280;4111;50.972;7.072;2023-02-23T06:44:30;100791.66;;;10.37;100.00
8140;BME280;4111;50.972;7.072;2023-02-23T06:46:56;100792.53;;;10.37;100.00
8140;BME280;4111;50.972;7.072;2023-02-23T06:49:23;100800.09;;;10.35;100.00
8140;BME280;4111;50.972;7.072;2023-02-23T06:51:49;100800.09;;;10.35;100.00
8140;BME280;4111;50.972;7.072;2023-02-23T06:54:15;100803.38;;;10.37;100.00
8140;BME280;4111;50.972;7.072;2023-02-23T06:56:42;100805.50;;;10.35;100.00
8140;BME280;4111;50.972;7.072;2023-02-23T06:59:09;100813.38;;;10.37;100.00
8140;BME280;4111;50.972;7.072;2023-02-23T07:01:35;100808.81;;;10.37;100.00
8140;BME280;4111;50.972;7.072;2023-02-23T07:04:02;100815.28;;;10.36;100.00
8140;BME280;4111;50.972;7.072;2023-02-23T07:06:29;100818.81;;;10.37;100.00
8140;BME280;4111;50.972;7.072;2023-02-23T07:08:57;100815.88;;;10.38;100.00
8140;BME280;4111;50.972;7.072;2023-02-23T07:11:23;100822.97;;;10.39;100.00
8140;BME280;4111;50.972;7.072;2023-02-23T07:13:50;100822.44;;;10.42;100.00
8140;BME280;4111;50.972;7.072;2023-02-23T07:16:16;100832.38;;;10.37;100.00
8140;BME280;4111;50.972;7.072;2023-02-23T07:18:43;100829.44;;;10.38;100.00
8140;BME280;4111;50.972;7.072;2023-02-23T07:21:09;100833.06;;;10.44;100.00
8140;BME280;4111;50.972;7.072;2023-02-23T07:23:36;100834.97;;;10.43;100.00
8140;BME280;4111;50.972;7.072;2023-02-23T07:26:02;100842.38;;;10.48;100.00
8140;BME280;4111;50.972;7.072;2023-02-23T07:28:28;100836.38;;;10.46;100.00
8140;BME280;4111;50.972;7.072;2023-02-23T07:30:56;100844.66;;;10.39;100.00
8140;BME280;4111;50.972;7.072;2023-02-23T07:33:24;100850.75;;;10.46;100.00
8140;BME280;4111;50.972;7.072;2023-02-23T07:35:50;100856.19;;;10.46;100.00
8140;BME280;4111;50.972;7.072;2023-02-23T07:38:17;100847.22;;;10.46;100.00
8140;BME280;4111;50.972;7.072;2023-02-23T07:40:44;100851.94;;;10.50;100.00
8140;BME280;4111;50.972;7.072;2023-02-23T07:43:10;100850.63;;;10.53;100.00
8140;BME280;4111;50.972;7.072;2023-02-23T07:45:36;100858.53;;;10.55;100.00
8140;BME280;4111;50.972;7.072;2023-02-23T07:48:04;100852.53;;;10.52;100.00
8140;BME280;4111;50.972;7.072;2023-02-23T07:50:30;100855.25;;;10.52;100.00
8140;BME280;4111;50.972;7.072;2023-02-23T07:52:56;100861.13;;;10.49;100.00
8140;BME280;4111;50.972;7.072;2023-02-23T07:55:23;100855.94;;;10.48;100.00
8140;BME280;4111;50.972;7.072;2023-02-23T07:57:49;100864.59;;;10.45;100.00
8140;BME280;4111;50.972;7.072;2023-02-23T08:00:16;100860.47;;;10.42;100.00
8140;BME280;4111;50.972;7.072;2023-02-23T08:02:42;100868.94;;;10.46;100.00
8140;BME280;4111;50.972;7.072;2023-02-23T08:05:09;100870.34;;;10.48;100.00
8140;BME280;4111;50.972;7.072;2023-02-23T08:07:36;100874.13;;;10.47;100.00
8140;BME280;4111;50.972;7.072;2023-02-23T08:10:02;100877.44;;;10.49;100.00
8140;BME280;4111;50.972;7.072;2023-02-23T08:12:31;100871.41;;;10.47;100.00
8140;BME280;4111;50.972;7.072;2023-02-23T08:14:58;100876.84;;;10.47;100.00
8140;BME280;4111;50.972;7.072;2023-02-23T08:17:25;100875.06;;;10.53;100.00
8140;BME280;4111;50.972;7.072;2023-02-23T08:19:52;100882.88;;;10.49;100.00
8140;BME280;4111;50.972;7.072;2023-02-23T08:22:19;100885.91;;;10.53;100.00
8140;BME280;4111;50.972;7.072;2023-02-23T08:24:46;100881.19;;;10.48;100.00
8140;BME280;4111;50.972;7.072;2023-02-23T08:27:12;100882.88;;;10.49;100.00
8140;BME280;4111;50.972;7.072;2023-02-23T08:29:39;100882.22;;;10.59;100.00
8140;BME280;4111;50.972;7.072;2023-02-23T08:32:05;100886.50;;;10.55;100.00
8140;BME280;4111;50.972;7.072;2023-02-23T08:34:39;100886.44;;;10.67;100.00
8140;BME280;4111;50.972;7.072;2023-02-23T08:37:06;100887.25;;;10.67;100.00
8140;BME280;4111;50.972;7.072;2023-02-23T08:39:33;100887.94;;;10.75;100.00
8140;BME280;4111;50.972;7.072;2023-02-23T08:41:59;100891.47;;;10.75;100.00
8140;BME280;4111;50.972;7.072;2023-02-23T08:44:26;100889.00;;;10.74;100.00
8140;BME280;4111;50.972;7.072;2023-02-23T08:46:52;100895.81;;;10.76;100.00
8140;BME280;4111;50.972;7.072;2023-02-23T08:49:21;100899.63;;;10.75;100.00
8140;BME280;4111;50.972;7.072;2023-02-23T08:51:47;100891.13;;;10.71;100.00
8140;BME280;4111;50.972;7.072;2023-02-23T08:54:14;100904.78;;;10.60;100.00
8140;BME280;4111;50.972;7.072;2023-02-23T08:56:41;100899.56;;;10.58;100.00
8140;BME280;4111;50.972;7.072;2023-02-23T08:59:09;100909.72;;;10.63;100.00
8140;BME280;4111;50.972;7.072;2023-02-23T09:01:36;100905.94;;;10.64;100.00
8140;BME280;4111;50.972;7.072;2023-02-23T09:04:04;100905.59;;;10.60;100.00
8140;BME280;4111;50.972;7.072;2023-02-23T09:06:31;100909.63;;;10.58;100.00
8140;BME280;4111;50.972;7.072;2023-02-23T09:08:58;100904.94;;;10.53;100.00
8140;BME280;4111;50.972;7.072;2023-02-23T09:11:25;100917.75;;;10.58;100.00
8140;BME280;4111;50.972;7.072;2023-02-23T09:13:51;100914.97;;;10.52;100.00
8140;BME280;4111;50.972;7.072;2023-02-23T09:16:18;100924.16;;;10.51;100.00
8140;BME280;4111;50.972;7.072;2023-02-23T09:18:44;100918.03;;;10.44;100.00
8140;BME280;4111;50.972;7.072;2023-02-23T09:21:14;100916.41;;;10.43;100.00
8140;BME280;4111;50.972;7.072;2023-02-23T09:23:44;100916.75;;;10.47;100.00
8140;BME280;4111;50.972;7.072;2023-02-23T09:26:14;100924.63;;;10.48;100.00
8140;BME280;4111;50.972;7.072;2023-02-23T09:28:44;100921.69;;;10.50;100.00
8140;BME280;4111;50.972;7.072;2023-02-23T09:31:14;100921.69;;;10.50;100.00
8140;BME280;4111;50.972;7.072;2023-02-23T09:33:41;100923.00;;;10.47;100.00
8140;BME280;4111;50.972;7.072;2023-02-23T09:36:10;100927.97;;;10.50;100.00
8140;BME280;4111;50.972;7.072;2023-02-23T09:38:44;100926.78;;;10.46;100.00
8140;BME280;4111;50.972;7.072;2023-02-23T09:41:41;100933.50;;;10.44;100.00
8140;BME280;4111;50.972;7.072;2023-02-23T09:44:20;100944.03;;;10.40;100.00
8140;BME280;4111;50.972;7.072;2023-02-23T09:46:58;100947.31;;;10.42;100.00
8140;BME280;4111;50.972;7.072;2023-02-23T09:49:33;100941.88;;;10.42;100.00
8140;BME280;4111;50.972;7.072;2023-02-23T09:52:01;100939.28;;;10.47;100.00
8140;BME280;4111;50.972;7.072;2023-02-23T09:54:33;100944.84;;;10.52;100.00
8140;BME280;4111;50.972;7.072;2023-02-23T09:57:02;100948.84;;;10.50;100.00
8140;BME280;4111;50.972;7.072;2023-02-23T09:59:33;100948.38;;;10.53;100.00
8140;BME280;4111;50.972;7.072;2023-02-23T10:04:46;100945.06;;;10.51;100.00
8140;BME280;4111;50.972;7.072;2023-02-23T10:07:27;100946.00;;;10.57;100.00
8140;BME280;4111;50.972;7.072;2023-02-23T10:10:15;100955.78;;;10.58;100.00
8140;BME280;4111;50.972;7.072;2023-02-23T10:18:36;100960.53;;;10.50;100.00
8140;BME280;4111;50.972;7.072;2023-02-23T10:21:17;100963.84;;;10.52;100.00
8140;BME280;4111;50.972;7.072;2023-02-23T10:23:50;100971.13;;;10.52;100.00
8140;BME280;4111;50.972;7.072;2023-02-23T10:26:37;100963.84;;;10.52;100.00
8140;BME280;4111;50.972;7.072;2023-02-23T10:29:18;100968.78;;;10.56;100.00
8140;BME280;4111;50.972;7.072;2023-02-23T10:31:48;100965.47;;;10.54;100.00
8140;BME280;4111;50.972;7.072;2023-02-23T10:34:17;100968.41;;;10.52;100.00
8140;BME280;4111;50.972;7.072;2023-02-23T10:37:04;100970.44;;;10.57;100.00
8140;BME280;4111;50.972;7.072;2023-02-23T10:39:31;100972.56;;;10.55;100.00
8140;BME280;4111;50.972;7.072;2023-02-23T10:42:02;100973.63;;;10.54;100.00
8140;BME280;4111;50.972;7.072;2023-02-23T10:44:31;100977.16;;;10.54;100.00
8140;BME280;4111;50.972;7.072;2023-02-23T10:47:00;100979.03;;;10.54;100.00
8140;BME280;4111;50.972;7.072;2023-02-23T10:49:38;100980.13;;;10.52;100.00
8140;BME280;4111;50.972;7.072;2023-02-23T10:52:09;100982.56;;;10.54;100.00
8140;BME280;4111;50.972;7.072;2023-02-23T10:54:44;100980.13;;;10.52;100.00
8140;BME280;4111;50.972;7.072;2023-02-23T10:57:25;100988.00;;;10.54;100.00
8140;BME280;4111;50.972;7.072;2023-02-23T11:02:43;100988.00;;;10.54;100.00
8140;BME280;4111;50.972;7.072;2023-02-23T11:05:33;100981.41;;;10.50;100.00
8140;BME280;4111;50.972;7.072;2023-02-23T11:08:23;100980.94;;;10.53;100.00
8140;BME280;4111;50.972;7.072;2023-02-23T11:11:04;100982.25;;;10.50;100.00
8140;BME280;4111;50.972;7.072;2023-02-23T11:13:40;100982.84;;;10.52;100.00
8140;BME280;4111;50.972;7.072;2023-02-23T11:16:10;100986.03;;;10.49;100.00
8140;BME280;4111;50.972;7.072;2023-02-23T11:18:39;100981.06;;;10.46;100.00
8140;BME280;4111;50.972;7.072;2023-02-23T11:21:11;100978.13;;;10.48;100.00
8140;BME280;4111;50.972;7.072;2023-02-23T11:23:40;100979.53;;;10.50;100.00
8140;BME280;4111;50.972;7.072;2023-02-23T11:26:20;100981.75;;;10.54;100.00
8140;BME280;4111;50.972;7.072;2023-02-23T11:28:51;100984.25;;;10.55;100.00
8140;BME280;4111;50.972;7.072;2023-02-23T11:31:21;100983.19;;;10.44;100.00
8140;BME280;4111;50.972;7.072;2023-02-23T11:33:49;100978.69;;;10.50;100.00
8140;BME280;4111;50.972;7.072;2023-02-23T11:41:42;100975.88;;;10.57;100.00
8140;BME280;4111;50.972;7.072;2023-02-23T11:44:19;100975.28;;;10.55;100.00
8140;BME280;4111;50.972;7.072;2023-02-23T11:46:48;100977.72;;;10.56;100.00
8140;BME280;4111;50.972;7.072;2023-02-23T11:49:28;100975.88;;;10.57;100.00
8140;BME280;4111;50.972;7.072;2023-02-23T11:51:58;100970.91;;;10.54;100.00
8140;BME280;4111;50.972;7.072;2023-02-23T11:54:28;100966.06;;;10.56;100.00
8140;BME280;4111;50.972;7.072;2023-02-23T11:56:55;100964.41;;;10.55;100.00
8140;BME280;4111;50.972;7.072;2023-02-23T11:59:29;100966.63;;;10.58;100.00
8140;BME280;4111;50.972;7.072;2023-02-23T12:04:45;100963.34;;;10.56;100.00
8140;BME280;4111;50.972;7.072;2023-02-23T12:07:43;100952.13;;;10.52;100.00
8140;BME280;4111;50.972;7.072;2023-02-23T12:10:17;100964.88;;;10.51;100.00
8140;BME280;4111;50.972;7.072;2023-02-23T12:18:01;100962.78;;;10.42;100.00
8140;BME280;4111;50.972;7.072;2023-02-23T12:20:36;100969.38;;;10.46;100.00
8140;BME280;4111;50.972;7.072;2023-02-23T12:23:08;100968.38;;;10.35;100.00
8140;BME280;4111;50.972;7.072;2023-02-23T12:28:20;100962.34;;;10.33;100.00
8140;BME280;4111;50.972;7.072;2023-02-23T12:33:18;100962.94;;;10.35;100.00
8140;BME280;4111;50.972;7.072;2023-02-23T12:38:45;100959.63;;;10.33;100.00
8140;BME280;4111;50.972;7.072;2023-02-23T12:41:19;100964.56;;;10.36;100.00
8140;BME280;4111;50.972;7.072;2023-02-23T12:43:55;100961.16;;;10.29;100.00
8140;BME280;4111;50.972;7.072;2023-02-23T12:46:28;100962.34;;;10.33;100.00
8140;BME280;4111;50.972;7.072;2023-02-23T12:49:15;100967.19;;;10.31;100.00
8140;BME280;4111;50.972;7.072;2023-02-23T12:51:50;100973.66;;;10.30;100.00
8140;BME280;4111;50.972;7.072;2023-02-23T12:54:18;100973.06;;;10.28;100.00
8140;BME280;4111;50.972;7.072;2023-02-23T12:57:03;100969.06;;;10.19;100.00
8140;BME280;4111;50.972;7.072;2023-02-23T13:04:56;100976.97;;;10.20;100.00
8140;BME280;4111;50.972;7.072;2023-02-23T13:07:41;100973.88;;;10.17;100.00
8140;BME280;4111;50.972;7.072;2023-02-23T13:10:35;100965.75;;;10.17;100.00
8140;BME280;4111;50.972;7.072;2023-02-23T13:18:36;100969.53;;;10.16;100.00
8140;BME280;4111;50.972;7.072;2023-02-23T13:21:11;100967.28;;;10.12;100.00
8140;BME280;4111;50.972;7.072;2023-02-23T13:24:06;100969.91;;;10.19;100.00
8140;BME280;4111;50.972;7.072;2023-02-23T13:29:41;100972.34;;;10.21;100.00
8140;BME280;4111;50.972;7.072;2023-02-23T13:32:17;100970.13;;;10.18;100.00
8140;BME280;4111;50.972;7.072;2023-02-23T13:34:49;100976.88;;;10.15;100.00
8140;BME280;4111;50.972;7.072;2023-02-23T13:37:21;100974.03;;;10.10;100.00
8140;BME280;4111;50.972;7.072;2023-02-23T13:40:00;100978.63;;;10.09;100.00
8140;BME280;4111;50.972;7.072;2023-02-23T13:45:59;100981.13;;;9.99;100.00
8140;BME280;4111;50.972;7.072;2023-02-23T13:49:29;100975.94;;;9.98;100.00
8140;BME280;4111;50.972;7.072;2023-02-23T13:51:35;100976.28;;;10.01;100.00
8140;BME280;4111;50.972;7.072;2023-02-23T13:54:21;100985.34;;;9.95;100.00
8140;BME280;4111;50.972;7.072;2023-02-23T13:56:54;100984.53;;;9.95;100.00
8140;BME280;4111;50.972;7.072;2023-02-23T13:59:23;100987.25;;;9.95;100.00
8140;BME280;4111;50.972;7.072;2023-02-23T14:01:52;100986.56;;;9.99;100.00
8140;BME280;4111;50.972;7.072;2023-02-23T14:04:25;100982.53;;;10.02;100.00
8140;BME280;4111;50.972;7.072;2023-02-23T14:09:33;100989.72;;;9.96;100.00
8140;BME280;4111;50.972;7.072;2023-02-23T14:12:12;100989.25;;;9.99;100.00
8140;BME280;4111;50.972;7.072;2023-02-23T14:14:43;100990.31;;;9.98;100.00
8140;BME280;4111;50.972;7.072;2023-02-23T14:20:12;100998.31;;;9.93;100.00
8140;BME280;4111;50.972;7.072;2023-02-23T14:25:52;100986.06;;;10.02;100.00
8140;BME280;4111;50.972;7.072;2023-02-23T14:28:39;100987.22;;;10.06;100.00
8140;BME280;4111;50.972;7.072;2023-02-23T14:33:49;100986.06;;;10.14;100.00
8140;BME280;4111;50.972;7.072;2023-02-23T14:38:50;100986.28;;;10.12;100.00
8140;BME280;4111;50.972;7.072;2023-02-23T14:43:59;100987.94;;;10.13;100.00
8140;BME280;4111;50.972;7.072;2023-02-23T14:46:32;100989.38;;;10.04;100.00
8140;BME280;4111;50.972;7.072;2023-02-23T14:49:18;100985.47;;;10.12;100.00
8140;BME280;4111;50.972;7.072;2023-02-23T14:51:48;100994.31;;;10.07;100.00
8140;BME280;4111;50.972;7.072;2023-02-23T14:56:51;100991.25;;;10.16;100.00
8140;BME280;4111;50.972;7.072;2023-02-23T14:59:21;100989.47;;;10.21;100.00